sensor_id;sensor_type;location;lat;lon;timestamp;pressure;altitude;pressure_sealevel;temperature;humidity
18850;BME280;4989;48.772;9.154;2022-11-20T00:03:31;97492.34;;;7.22;100.00
18850;BME280;4989;48.772;9.154;2022-11-20T00:08:34;97499.78;;;7.38;100.00
18850;BME280;4989;48.772;9.154;2022-11-20T00:13:36;97498.41;;;7.29;100.00
18850;BME280;4989;48.772;9.154;2022-11-20T00:18:38;97497.81;;;7.18;100.00
18850;BME280;4989;48.772;9.154;2022-11-20T00:23:42;97493.69;;;7.33;100.00
18850;BME280;4989;48.772;9.154;2022-11-20T00:28:50;97495.66;;;7.53;100.00
18850;BME280;4989;48.772;9.154;2022-11-20T00:33:55;97501.81;;;7.77;100.00
18850;BME280;4989;48.772;9.154;2022-11-20T00:38:58;97489.78;;;7.58;100.00
18850;BME280;4989;48.772;9.154;2022-11-20T00:44:01;97495.16;;;7.38;100.00
18850;BME280;4989;48.772;9.154;2022-11-20T00:49:03;97492.56;;;7.54;100.00
18850;BME280;4989;48.772;9.154;2022-11-20T00:54:06;97491.75;;;7.34;100.00
18850;BME280;4989;48.772;9.154;2022-11-20T00:59:09;97490.63;;;7.31;100.00
18850;BME280;4989;48.772;9.154;2022-11-20T01:04:12;97492.38;;;6.95;100.00
18850;BME280;4989;48.772;9.154;2022-11-20T01:09:15;97487.66;;;6.75;100.00
18850;BME280;4989;48.772;9.154;2022-11-20T01:14:19;97495.56;;;6.59;100.00
18850;BME280;4989;48.772;9.154;2022-11-20T01:19:25;97497.34;;;6.42;100.00
18850;BME280;4989;48.772;9.154;2022-11-20T01:24:28;97501.56;;;6.43;100.00
18850;BME280;4989;48.772;9.154;2022-11-20T01:29:30;97506.59;;;6.41;100.00
18850;BME280;4989;48.772;9.154;2022-11-20T01:34:32;97507.34;;;6.45;100.00
18850;BME280;4989;48.772;9.154;2022-11-20T01:39:35;97513.28;;;6.33;100.00
18850;BME280;4989;48.772;9.154;2022-11-20T01:44:54;97510.66;;;6.26;100.00
18850;BME280;4989;48.772;9.154;2022-11-20T01:55:24;97514.56;;;6.21;100.00
18850;BME280;4989;48.772;9.154;2022-11-20T02:00:28;97506.66;;;6.37;100.00
18850;BME280;4989;48.772;9.154;2022-11-20T02:11:01;97518.50;;;6.74;100.00
18850;BME280;4989;48.772;9.154;2022-11-20T02:16:04;97523.38;;;6.56;100.00
18850;BME280;4989;48.772;9.154;2022-11-20T02:21:21;97513.59;;;6.38;100.00
18850;BME280;4989;48.772;9.154;2022-11-20T02:26:28;97517.44;;;6.37;100.00
18850;BME280;4989;48.772;9.154;2022-11-20T02:31:37;97523.75;;;6.27;100.00
18850;BME280;4989;48.772;9.154;2022-11-20T02:36:42;97520.84;;;6.11;100.00
18850;BME280;4989;48.772;9.154;2022-11-20T02:41:45;97518.66;;;6.02;100.00
18850;BME280;4989;48.772;9.154;2022-11-20T02:46:47;97517.53;;;5.96;100.00
18850;BME280;4989;48.772;9.154;2022-11-20T02:51:50;97515.63;;;5.96;100.00
18850;BME280;4989;48.772;9.154;2022-11-20T02:56:54;97514.44;;;5.97;100.00
18850;BME280;4989;48.772;9.154;2022-11-20T03:01:57;97522.50;;;6.01;100.00
18850;BME280;4989;48.772;9.154;2022-11-20T03:06:59;97526.31;;;6.04;100.00
18850;BME280;4989;48.772;9.154;2022-11-20T03:12:03;97520.88;;;6.07;100.00
18850;BME280;4989;48.772;9.154;2022-11-20T03:17:06;97518.28;;;6.00;100.00
18850;BME280;4989;48.772;9.154;2022-11-20T03:22:08;97508.69;;;5.95;100.00
18850;BME280;4989;48.772;9.154;2022-11-20T03:27:14;97511.78;;;5.94;100.00
18850;BME280;4989;48.772;9.154;2022-11-20T03:32:17;97506.41;;;5.90;100.00
18850;BME280;4989;48.772;9.154;2022-11-20T03:37:23;97500.31;;;5.83;100.00
18850;BME280;4989;48.772;9.154;2022-11-20T03:42:25;97503.47;;;5.74;100.00
18850;BME280;4989;48.772;9.154;2022-11-20T03:47:46;97504.38;;;5.64;100.00
18850;BME280;4989;48.772;9.154;2022-11-20T03:52:52;97493.63;;;5.60;100.00
18850;BME280;4989;48.772;9.154;2022-11-20T03:57:54;97492.91;;;5.53;100.00
18850;BME280;4989;48.772;9.154;2022-11-20T04:03:01;97498.38;;;5.45;100.00
18850;BME280;4989;48.772;9.154;2022-11-20T04:08:03;97498.44;;;5.38;100.00
18850;BME280;4989;48.772;9.154;2022-11-20T04:13:06;97491.50;;;5.37;100.00
18850;BME280;4989;48.772;9.154;2022-11-20T04:18:10;97494.63;;;5.32;100.00
18850;BME280;4989;48.772;9.154;2022-11-20T04:23:13;97489.25;;;5.32;100.00
18850;BME280;4989;48.772;9.154;2022-11-20T04:28:16;97487.66;;;5.38;100.00
18850;BME280;4989;48.772;9.154;2022-11-20T04:33:18;97483.44;;;5.37;100.00
18850;BME280;4989;48.772;9.154;2022-11-20T04:38:21;97480.66;;;5.44;100.00
18850;BME280;4989;48.772;9.154;2022-11-20T04:43:26;97496.78;;;5.51;100.00
18850;BME280;4989;48.772;9.154;2022-11-20T04:48:30;97485.56;;;5.57;100.00
18850;BME280;4989;48.772;9.154;2022-11-20T04:53:33;97496.03;;;5.51;100.00
18850;BME280;4989;48.772;9.154;2022-11-20T04:58:35;97483.72;;;5.46;100.00
18850;BME280;4989;48.772;9.154;2022-11-20T05:03:39;97484.53;;;5.43;100.00
18850;BME280;4989;48.772;9.154;2022-11-20T05:08:44;97480.56;;;5.55;100.00
18850;BME280;4989;48.772;9.154;2022-11-20T05:13:50;97483.53;;;5.68;100.00
18850;BME280;4989;48.772;9.154;2022-11-20T05:18:54;97481.19;;;5.70;100.00
18850;BME280;4989;48.772;9.154;2022-11-20T05:23:56;97474.91;;;5.80;100.00
18850;BME280;4989;48.772;9.154;2022-11-20T05:28:59;97475.69;;;5.81;100.00
18850;BME280;4989;48.772;9.154;2022-11-20T05:34:03;97482.19;;;5.83;100.00
18850;BME280;4989;48.772;9.154;2022-11-20T05:39:05;97487.22;;;5.85;100.00
18850;BME280;4989;48.772;9.154;2022-11-20T05:44:10;97484.84;;;5.90;100.00
18850;BME280;4989;48.772;9.154;2022-11-20T05:49:13;97482.84;;;5.98;100.00
18850;BME280;4989;48.772;9.154;2022-11-20T05:54:16;97484.69;;;6.05;100.00
18850;BME280;4989;48.772;9.154;2022-11-20T05:59:19;97480.09;;;6.05;100.00
18850;BME280;4989;48.772;9.154;2022-11-20T06:04:22;97485.44;;;6.09;100.00
18850;BME280;4989;48.772;9.154;2022-11-20T06:09:24;97484.66;;;6.08;100.00
18850;BME280;4989;48.772;9.154;2022-11-20T06:14:32;97484.97;;;6.14;100.00
18850;BME280;4989;48.772;9.154;2022-11-20T06:19:35;97482.25;;;6.14;100.00
18850;BME280;4989;48.772;9.154;2022-11-20T06:24:37;97482.19;;;6.21;100.00
18850;BME280;4989;48.772;9.154;2022-11-20T06:29:40;97473.72;;;6.19;100.00
18850;BME280;4989;48.772;9.154;2022-11-20T06:34:42;97467.94;;;6.21;100.00
18850;BME280;4989;48.772;9.154;2022-11-20T06:39:45;97465.63;;;6.19;100.00
18850;BME280;4989;48.772;9.154;2022-11-20T06:44:47;97460.66;;;6.17;100.00
18850;BME280;4989;48.772;9.154;2022-11-20T06:49:50;97460.63;;;6.21;100.00
18850;BME280;4989;48.772;9.154;2022-11-20T06:54:55;97471.41;;;6.21;100.00
18850;BME280;4989;48.772;9.154;2022-11-20T06:59:57;97479.84;;;6.23;100.00
18850;BME280;4989;48.772;9.154;2022-11-20T07:05:00;97476.03;;;6.21;100.00
18850;BME280;4989;48.772;9.154;2022-11-20T07:10:02;97488.31;;;6.25;100.00
18850;BME280;4989;48.772;9.154;2022-11-20T07:15:05;97477.50;;;6.25;100.00
18850;BME280;4989;48.772;9.154;2022-11-20T07:20:08;97485.16;;;6.30;100.00
18850;BME280;4989;48.772;9.154;2022-11-20T07:25:11;97485.88;;;6.34;100.00
18850;BME280;4989;48.772;9.154;2022-11-20T07:30:17;97489.66;;;6.40;100.00
18850;BME280;4989;48.772;9.154;2022-11-20T07:35:20;97495.50;;;6.35;100.00
18850;BME280;4989;48.772;9.154;2022-11-20T07:40:23;97498.94;;;6.39;100.00
18850;BME280;4989;48.772;9.154;2022-11-20T07:45:25;97492.28;;;6.44;100.00
18850;BME280;4989;48.772;9.154;2022-11-20T07:50:29;97499.19;;;6.49;100.00
18850;BME280;4989;48.772;9.154;2022-11-20T07:55:32;97497.13;;;6.60;100.00
18850;BME280;4989;48.772;9.154;2022-11-20T08:00:34;97503.84;;;6.75;100.00
18850;BME280;4989;48.772;9.154;2022-11-20T08:05:37;97507.97;;;6.83;100.00
18850;BME280;4989;48.772;9.154;2022-11-20T08:10:43;97515.59;;;6.88;100.00
18850;BME280;4989;48.772;9.154;2022-11-20T08:15:49;97517.13;;;6.89;100.00
18850;BME280;4989;48.772;9.154;2022-11-20T08:20:52;97514.22;;;7.04;100.00
18850;BME280;4989;48.772;9.154;2022-11-20T08:25:58;97518.72;;;7.14;100.00
18850;BME280;4989;48.772;9.154;2022-11-20T08:31:04;97526.34;;;7.19;100.00
18850;BME280;4989;48.772;9.154;2022-11-20T08:36:07;97518.88;;;7.03;100.00
18850;BME280;4989;48.772;9.154;2022-11-20T08:41:09;97523.47;;;7.06;100.00
18850;BME280;4989;48.772;9.154;2022-11-20T08:46:35;97527.16;;;7.16;100.00
18850;BME280;4989;48.772;9.154;2022-11-20T08:51:46;97525.19;;;7.44;100.00
18850;BME280;4989;48.772;9.154;2022-11-20T08:56:51;97523.16;;;7.71;100.00
18850;BME280;4989;48.772;9.154;2022-11-20T09:01:54;97533.50;;;8.00;100.00
18850;BME280;4989;48.772;9.154;2022-11-20T09:06:57;97533.75;;;7.86;100.00
18850;BME280;4989;48.772;9.154;2022-11-20T09:12:02;97544.19;;;7.84;100.00
18850;BME280;4989;48.772;9.154;2022-11-20T09:17:10;97548.53;;;7.81;100.00
18850;BME280;4989;48.772;9.154;2022-11-20T09:22:18;97550.81;;;7.83;100.00
18850;BME280;4989;48.772;9.154;2022-11-20T09:27:21;97556.22;;;7.83;100.00
18850;BME280;4989;48.772;9.154;2022-11-20T09:32:23;97551.69;;;7.76;100.00
18850;BME280;4989;48.772;9.154;2022-11-20T09:37:26;97560.03;;;7.85;100.00
18850;BME280;4989;48.772;9.154;2022-11-20T09:48:08;97570.63;;;7.76;100.00
18850;BME280;4989;48.772;9.154;2022-11-20T09:58:47;97576.34;;;7.82;100.00
18850;BME280;4989;48.772;9.154;2022-11-20T10:09:29;97560.72;;;7.89;100.00
18850;BME280;4989;48.772;9.154;2022-11-20T10:20:14;97579.50;;;7.76;100.00
18850;BME280;4989;48.772;9.154;2022-11-20T10:25:20;97587.97;;;7.78;100.00
18850;BME280;4989;48.772;9.154;2022-11-20T10:30:23;97589.97;;;7.51;100.00
18850;BME280;4989;48.772;9.154;2022-11-20T10:41:02;97597.94;;;7.34;100.00
18850;BME280;4989;48.772;9.154;2022-11-20T10:46:24;97586.41;;;7.30;100.00
18850;BME280;4989;48.772;9.154;2022-11-20T10:56:52;97585.66;;;7.30;100.00
18850;BME280;4989;48.772;9.154;2022-11-20T11:01:54;97577.50;;;7.33;100.00
18850;BME280;4989;48.772;9.154;2022-11-20T11:07:16;97568.56;;;7.37;100.00
18850;BME280;4989;48.772;9.154;2022-11-20T11:12:25;97573.91;;;7.40;100.00
18850;BME280;4989;48.772;9.154;2022-11-20T11:17:30;97560.03;;;7.38;100.00
18850;BME280;4989;48.772;9.154;2022-11-20T11:22:42;97542.81;;;7.52;100.00
18850;BME280;4989;48.772;9.154;2022-11-20T11:27:48;97530.63;;;7.87;100.00
18850;BME280;4989;48.772;9.154;2022-11-20T11:33:01;97528.47;;;11.75;100.00
18850;BME280;4989;48.772;9.154;2022-11-20T11:38:07;97522.59;;;17.31;74.31
18850;BME280;4989;48.772;9.154;2022-11-20T11:43:28;97505.38;;;18.13;67.28
18850;BME280;4989;48.772;9.154;2022-11-20T11:49:00;97503.63;;;18.15;68.91
18850;BME280;4989;48.772;9.154;2022-11-20T11:54:10;97497.81;;;18.34;63.14
18850;BME280;4989;48.772;9.154;2022-11-20T11:59:27;97488.44;;;13.13;84.57
18850;BME280;4989;48.772;9.154;2022-11-20T12:04:42;97490.31;;;14.36;78.79
18850;BME280;4989;48.772;9.154;2022-11-20T12:09:50;97490.81;;;13.02;84.15
18850;BME280;4989;48.772;9.154;2022-11-20T12:14:55;97493.06;;;14.36;82.16
18850;BME280;4989;48.772;9.154;2022-11-20T12:20:02;97475.34;;;17.68;65.82
18850;BME280;4989;48.772;9.154;2022-11-20T12:37:42;97470.59;;;12.81;72.94
18850;BME280;4989;48.772;9.154;2022-11-20T12:42:58;97473.03;;;12.04;83.70
18850;BME280;4989;48.772;9.154;2022-11-20T12:59:23;97473.09;;;10.32;82.85
18850;BME280;4989;48.772;9.154;2022-11-20T13:09:44;97473.97;;;10.29;78.71
18850;BME280;4989;48.772;9.154;2022-11-20T13:15:08;97488.78;;;10.24;78.62
18850;BME280;4989;48.772;9.154;2022-11-20T13:20:19;97474.59;;;9.91;78.59
18850;BME280;4989;48.772;9.154;2022-11-20T13:30:36;97452.56;;;10.44;78.46
18850;BME280;4989;48.772;9.154;2022-11-20T13:35:42;97461.63;;;10.12;77.82
18850;BME280;4989;48.772;9.154;2022-11-20T13:41:01;97459.94;;;9.59;77.94
18850;BME280;4989;48.772;9.154;2022-11-20T13:46:40;97464.03;;;9.35;80.84
18850;BME280;4989;48.772;9.154;2022-11-20T13:51:48;97462.19;;;9.15;80.79
18850;BME280;4989;48.772;9.154;2022-11-20T14:02:10;97459.72;;;8.72;92.53
18850;BME280;4989;48.772;9.154;2022-11-20T14:07:16;97455.06;;;8.73;99.55
18850;BME280;4989;48.772;9.154;2022-11-20T14:12:27;97454.03;;;8.66;99.50
18850;BME280;4989;48.772;9.154;2022-11-20T14:17:32;97453.72;;;8.81;100.00
18850;BME280;4989;48.772;9.154;2022-11-20T14:22:37;97448.75;;;8.59;99.59
18850;BME280;4989;48.772;9.154;2022-11-20T14:27:52;97450.44;;;8.53;100.00
18850;BME280;4989;48.772;9.154;2022-11-20T14:32:57;97451.72;;;8.48;99.46
18850;BME280;4989;48.772;9.154;2022-11-20T14:38:03;97443.47;;;8.72;100.00
18850;BME280;4989;48.772;9.154;2022-11-20T14:43:27;97442.69;;;8.88;95.05
18850;BME280;4989;48.772;9.154;2022-11-20T14:48:39;97444.91;;;8.93;92.48
18850;BME280;4989;48.772;9.154;2022-11-20T14:53:43;97432.72;;;8.85;90.38
18850;BME280;4989;48.772;9.154;2022-11-20T14:58:58;97412.63;;;8.82;90.91
18850;BME280;4989;48.772;9.154;2022-11-20T15:04:05;97399.53;;;8.81;90.91
18850;BME280;4989;48.772;9.154;2022-11-20T15:09:15;97402.81;;;8.72;90.23
18850;BME280;4989;48.772;9.154;2022-11-20T15:14:18;97395.63;;;8.65;91.49
18850;BME280;4989;48.772;9.154;2022-11-20T15:19:22;97386.81;;;8.61;92.01
18850;BME280;4989;48.772;9.154;2022-11-20T15:24:28;97384.09;;;8.45;93.17
18850;BME280;4989;48.772;9.154;2022-11-20T15:29:31;97378.03;;;8.37;94.34
18850;BME280;4989;48.772;9.154;2022-11-20T15:34:34;97380.16;;;8.30;95.44
18850;BME280;4989;48.772;9.154;2022-11-20T15:39:36;97394.94;;;8.25;94.73
18850;BME280;4989;48.772;9.154;2022-11-20T15:44:39;97374.56;;;8.20;95.56
18850;BME280;4989;48.772;9.154;2022-11-20T15:49:41;97372.66;;;8.01;96.78
18850;BME280;4989;48.772;9.154;2022-11-20T15:54:44;97368.22;;;7.91;97.38
18850;BME280;4989;48.772;9.154;2022-11-20T15:59:47;97369.94;;;8.01;97.17
18850;BME280;4989;48.772;9.154;2022-11-20T16:04:49;97370.75;;;8.18;97.59
18850;BME280;4989;48.772;9.154;2022-11-20T16:09:52;97363.28;;;8.42;94.57
18850;BME280;4989;48.772;9.154;2022-11-20T16:14:54;97360.84;;;8.11;96.24
18850;BME280;4989;48.772;9.154;2022-11-20T16:20:16;97368.06;;;7.98;97.92
18850;BME280;4989;48.772;9.154;2022-11-20T16:25:21;97358.16;;;7.91;99.21
18850;BME280;4989;48.772;9.154;2022-11-20T16:30:24;97351.91;;;7.94;100.00
18850;BME280;4989;48.772;9.154;2022-11-20T16:35:30;97354.53;;;7.98;100.00
18850;BME280;4989;48.772;9.154;2022-11-20T16:40:33;97350.97;;;7.85;100.00
18850;BME280;4989;48.772;9.154;2022-11-20T16:45:45;97343.41;;;7.96;99.15
18850;BME280;4989;48.772;9.154;2022-11-20T16:50:52;97343.69;;;7.82;100.00
18850;BME280;4989;48.772;9.154;2022-11-20T16:55:55;97336.59;;;7.88;100.00
18850;BME280;4989;48.772;9.154;2022-11-20T17:01:03;97334.75;;;7.85;100.00
18850;BME280;4989;48.772;9.154;2022-11-20T17:06:27;97324.38;;;7.99;100.00
18850;BME280;4989;48.772;9.154;2022-11-20T17:11:30;97320.06;;;8.02;99.58
18850;BME280;4989;48.772;9.154;2022-11-20T17:16:35;97325.16;;;8.16;96.97
18850;BME280;4989;48.772;9.154;2022-11-20T17:21:38;97316.19;;;8.03;99.05
18850;BME280;4989;48.772;9.154;2022-11-20T17:26:42;97322.78;;;8.02;97.64
18850;BME280;4989;48.772;9.154;2022-11-20T17:31:45;97316.00;;;8.10;98.87
18850;BME280;4989;48.772;9.154;2022-11-20T17:36:49;97309.56;;;8.04;96.68
18850;BME280;4989;48.772;9.154;2022-11-20T17:41:52;97310.97;;;7.92;96.11
18850;BME280;4989;48.772;9.154;2022-11-20T17:47:13;97307.72;;;8.01;95.99
18850;BME280;4989;48.772;9.154;2022-11-20T17:52:16;97303.97;;;7.95;96.94
18850;BME280;4989;48.772;9.154;2022-11-20T17:57:18;97303.66;;;8.09;94.95
18850;BME280;4989;48.772;9.154;2022-11-20T18:02:40;97284.22;;;8.14;93.86
18850;BME280;4989;48.772;9.154;2022-11-20T18:07:44;97278.13;;;8.10;93.46
18850;BME280;4989;48.772;9.154;2022-11-20T18:12:46;97264.59;;;7.94;92.91
18850;BME280;4989;48.772;9.154;2022-11-20T18:17:49;97270.84;;;7.91;93.48
18850;BME280;4989;48.772;9.154;2022-11-20T18:22:52;97261.44;;;7.95;92.85
18850;BME280;4989;48.772;9.154;2022-11-20T18:27:54;97250.03;;;7.88;93.89
18850;BME280;4989;48.772;9.154;2022-11-20T18:32:57;97246.31;;;7.82;94.79
18850;BME280;4989;48.772;9.154;2022-11-20T18:38:00;97240.19;;;7.77;95.07
18850;BME280;4989;48.772;9.154;2022-11-20T18:43:02;97235.16;;;7.79;93.99
18850;BME280;4989;48.772;9.154;2022-11-20T18:48:23;97234.66;;;7.85;98.05
18850;BME280;4989;48.772;9.154;2022-11-20T18:53:25;97239.56;;;8.06;97.35
18850;BME280;4989;48.772;9.154;2022-11-20T18:58:31;97236.69;;;8.13;95.98
18850;BME280;4989;48.772;9.154;2022-11-20T19:03:33;97227.50;;;7.58;100.00
18850;BME280;4989;48.772;9.154;2022-11-20T19:08:36;97215.66;;;7.36;100.00
18850;BME280;4989;48.772;9.154;2022-11-20T19:13:42;97222.56;;;7.37;100.00
18850;BME280;4989;48.772;9.154;2022-11-20T19:18:45;97230.78;;;7.49;100.00
18850;BME280;4989;48.772;9.154;2022-11-20T19:23:51;97222.53;;;7.20;100.00
18850;BME280;4989;48.772;9.154;2022-11-20T19:28:55;97214.53;;;7.13;100.00
18850;BME280;4989;48.772;9.154;2022-11-20T19:34:00;97206.31;;;7.00;100.00
18850;BME280;4989;48.772;9.154;2022-11-20T19:39:05;97209.22;;;7.09;100.00
18850;BME280;4989;48.772;9.154;2022-11-20T19:44:13;97197.50;;;7.16;100.00
18850;BME280;4989;48.772;9.154;2022-11-20T19:49:16;97191.34;;;6.96;99.90
18850;BME280;4989;48.772;9.154;2022-11-20T19:54:19;97199.44;;;6.96;99.36
18850;BME280;4989;48.772;9.154;2022-11-20T19:59:21;97185.22;;;6.75;100.00
18850;BME280;4989;48.772;9.154;2022-11-20T20:04:24;97187.19;;;6.71;98.31
18850;BME280;4989;48.772;9.154;2022-11-20T20:09:27;97187.75;;;6.62;100.00
18850;BME280;4989;48.772;9.154;2022-11-20T20:14:31;97184.03;;;6.76;99.80
18850;BME280;4989;48.772;9.154;2022-11-20T20:19:33;97184.66;;;6.64;100.00
18850;BME280;4989;48.772;9.154;2022-11-20T20:24:37;97184.28;;;6.62;98.81
18850;BME280;4989;48.772;9.154;2022-11-20T20:29:39;97188.44;;;6.47;100.00
18850;BME280;4989;48.772;9.154;2022-11-20T20:34:42;97198.94;;;6.41;100.00
18850;BME280;4989;48.772;9.154;2022-11-20T20:39:44;97190.09;;;6.40;100.00
18850;BME280;4989;48.772;9.154;2022-11-20T20:44:47;97199.97;;;6.27;100.00
18850;BME280;4989;48.772;9.154;2022-11-20T20:50:10;97211.22;;;6.22;100.00
18850;BME280;4989;48.772;9.154;2022-11-20T20:55:13;97202.44;;;6.18;100.00
18850;BME280;4989;48.772;9.154;2022-11-20T21:00:16;97213.56;;;6.20;100.00
18850;BME280;4989;48.772;9.154;2022-11-20T21:05:18;97223.66;;;6.16;100.00
18850;BME280;4989;48.772;9.154;2022-11-20T21:10:21;97208.94;;;6.21;100.00
18850;BME280;4989;48.772;9.154;2022-11-20T21:15:25;97221.66;;;6.20;100.00
18850;BME280;4989;48.772;9.154;2022-11-20T21:20:27;97226.22;;;6.23;100.00
18850;BME280;4989;48.772;9.154;2022-11-20T21:25:49;97225.16;;;6.17;100.00
18850;BME280;4989;48.772;9.154;2022-11-20T21:30:51;97235.63;;;6.15;100.00
18850;BME280;4989;48.772;9.154;2022-11-20T21:35:54;97212.63;;;6.07;100.00
18850;BME280;4989;48.772;9.154;2022-11-20T21:41:00;97216.59;;;5.99;100.00
18850;BME280;4989;48.772;9.154;2022-11-20T21:46:13;97207.38;;;5.96;100.00
18850;BME280;4989;48.772;9.154;2022-11-20T21:51:19;97217.41;;;5.95;100.00
18850;BME280;4989;48.772;9.154;2022-11-20T21:56:23;97211.22;;;5.99;100.00
18850;BME280;4989;48.772;9.154;2022-11-20T22:01:28;97219.66;;;6.01;100.00
18850;BME280;4989;48.772;9.154;2022-11-20T22:06:32;97224.25;;;6.04;100.00
18850;BME280;4989;48.772;9.154;2022-11-20T22:11:35;97226.94;;;6.04;100.00
18850;BME280;4989;48.772;9.154;2022-11-20T22:16:37;97234.31;;;6.00;100.00
18850;BME280;4989;48.772;9.154;2022-11-20T22:21:40;97226.63;;;5.98;100.00
18850;BME280;4989;48.772;9.154;2022-11-20T22:26:43;97218.97;;;5.96;100.00
18850;BME280;4989;48.772;9.154;2022-11-20T22:31:46;97228.94;;;6.00;100.00
18850;BME280;4989;48.772;9.154;2022-11-20T22:36:49;97228.13;;;6.03;100.00
18850;BME280;4989;48.772;9.154;2022-11-20T22:41:51;97220.72;;;6.07;100.00
18850;BME280;4989;48.772;9.154;2022-11-20T22:46:54;97222.59;;;6.10;100.00
18850;BME280;4989;48.772;9.154;2022-11-20T22:51:56;97229.63;;;6.04;100.00
18850;BME280;4989;48.772;9.154;2022-11-20T22:56:59;97227.34;;;5.75;100.00
18850;BME280;4989;48.772;9.154;2022-11-20T23:02:01;97235.19;;;5.66;100.00
18850;BME280;4989;48.772;9.154;2022-11-20T23:07:05;97244.84;;;5.63;100.00
18850;BME280;4989;48.772;9.154;2022-11-20T23:12:07;97239.47;;;5.60;100.00
18850;BME280;4989;48.772;9.154;2022-11-20T23:17:10;97234.00;;;5.67;100.00
18850;BME280;4989;48.772;9.154;2022-11-20T23:22:12;97230.88;;;5.72;100.00
18850;BME280;4989;48.772;9.154;2022-11-20T23:27:15;97224.91;;;5.84;100.00
18850;BME280;4989;48.772;9.154;2022-11-20T23:32:21;97234.63;;;5.78;100.00
18850;BME280;4989;48.772;9.154;2022-11-20T23:37:23;97238.59;;;5.70;100.00
18850;BME280;4989;48.772;9.154;2022-11-20T23:42:26;97240.91;;;5.68;100.00
18850;BME280;4989;48.772;9.154;2022-11-20T23:47:28;97246.31;;;5.68;100.00
18850;BME280;4989;48.772;9.154;2022-11-20T23:52:30;97243.91;;;5.73;100.00
18850;BME280;4989;48.772;9.154;2022-11-20T23:57:33;97243.88;;;5.77;100.00
